sensor_id;sensor_type;location;lat;lon;timestamp;temperature;humidity
12374;DHT22;6251;51.762;8.660;2023-04-15T01:03:21;4.80;99.90
12374;DHT22;6251;51.762;8.660;2023-04-15T01:13:23;4.80;99.90
12374;DHT22;6251;51.762;8.660;2023-04-15T02:54:57;4.10;99.90
12374;DHT22;6251;51.762;8.660;2023-04-15T04:06:02;4.00;99.90
12374;DHT22;6251;51.762;8.660;2023-04-15T04:16:02;3.90;99.90
12374;DHT22;6251;51.762;8.660;2023-04-15T04:26:04;3.80;99.90
12374;DHT22;6251;51.762;8.660;2023-04-15T04:36:05;3.90;99.90
12374;DHT22;6251;51.762;8.660;2023-04-15T04:46:05;4.00;99.90
12374;DHT22;6251;51.762;8.660;2023-04-15T04:56:06;4.10;99.90
12374;DHT22;6251;51.762;8.660;2023-04-15T05:06:07;4.20;99.90
12374;DHT22;6251;51.762;8.660;2023-04-15T05:16:08;4.30;99.90
12374;DHT22;6251;51.762;8.660;2023-04-15T05:26:08;4.50;99.90
12374;DHT22;6251;51.762;8.660;2023-04-15T05:36:09;4.70;99.90
12374;DHT22;6251;51.762;8.660;2023-04-15T05:46:10;4.90;99.90
12374;DHT22;6251;51.762;8.660;2023-04-15T05:56:10;5.20;99.90
12374;DHT22;6251;51.762;8.660;2023-04-15T06:06:11;5.40;99.90
12374;DHT22;6251;51.762;8.660;2023-04-15T06:16:11;5.70;99.90
12374;DHT22;6251;51.762;8.660;2023-04-15T06:26:12;6.00;99.90
12374;DHT22;6251;51.762;8.660;2023-04-15T06:36:13;6.40;99.90
12374;DHT22;6251;51.762;8.660;2023-04-15T06:46:14;6.40;99.90
12374;DHT22;6251;51.762;8.660;2023-04-15T06:56:15;6.60;99.90
12374;DHT22;6251;51.762;8.660;2023-04-15T07:06:16;6.70;99.90
12374;DHT22;6251;51.762;8.660;2023-04-15T07:16:16;6.90;99.90
12374;DHT22;6251;51.762;8.660;2023-04-15T07:26:17;7.10;99.90
12374;DHT22;6251;51.762;8.660;2023-04-15T07:36:18;7.40;99.90
12374;DHT22;6251;51.762;8.660;2023-04-15T07:46:18;7.40;99.90
12374;DHT22;6251;51.762;8.660;2023-04-15T07:56:19;7.30;99.90
12374;DHT22;6251;51.762;8.660;2023-04-15T08:06:20;7.30;99.90
12374;DHT22;6251;51.762;8.660;2023-04-15T08:16:21;7.30;99.90
12374;DHT22;6251;51.762;8.660;2023-04-15T08:26:22;7.30;99.90
12374;DHT22;6251;51.762;8.660;2023-04-15T08:36:23;7.30;99.90
12374;DHT22;6251;51.762;8.660;2023-04-15T08:46:23;7.20;99.90
12374;DHT22;6251;51.762;8.660;2023-04-15T08:56:25;7.50;99.90
12374;DHT22;6251;51.762;8.660;2023-04-15T09:06:28;7.60;99.90
12374;DHT22;6251;51.762;8.660;2023-04-15T09:16:29;7.60;99.90
12374;DHT22;6251;51.762;8.660;2023-04-15T09:26:34;7.60;99.90
12374;DHT22;6251;51.762;8.660;2023-04-15T09:46:51;7.50;99.90
12374;DHT22;6251;51.762;8.660;2023-04-15T09:56:51;7.50;99.90
12374;DHT22;6251;51.762;8.660;2023-04-15T10:06:52;7.50;99.90
12374;DHT22;6251;51.762;8.660;2023-04-15T10:16:55;7.50;99.90
12374;DHT22;6251;51.762;8.660;2023-04-15T10:27:05;7.70;99.90
12374;DHT22;6251;51.762;8.660;2023-04-15T10:37:08;7.60;99.90
12374;DHT22;6251;51.762;8.660;2023-04-15T10:47:19;7.60;99.90
12374;DHT22;6251;51.762;8.660;2023-04-15T10:57:23;7.60;99.90
12374;DHT22;6251;51.762;8.660;2023-04-15T11:17:33;7.60;99.90
12374;DHT22;6251;51.762;8.660;2023-04-15T12:22:19;7.60;99.90
12374;DHT22;6251;51.762;8.660;2023-04-15T12:32:21;7.70;99.90
12374;DHT22;6251;51.762;8.660;2023-04-15T12:42:22;7.80;99.90
12374;DHT22;6251;51.762;8.660;2023-04-15T12:52:23;7.80;99.90
12374;DHT22;6251;51.762;8.660;2023-04-15T13:02:24;7.90;99.90
12374;DHT22;6251;51.762;8.660;2023-04-15T13:12:27;8.00;99.90
12374;DHT22;6251;51.762;8.660;2023-04-15T13:33:11;8.00;99.90
12374;DHT22;6251;51.762;8.660;2023-04-15T13:43:20;8.00;99.90
12374;DHT22;6251;51.762;8.660;2023-04-15T13:53:21;8.00;99.90
12374;DHT22;6251;51.762;8.660;2023-04-15T14:03:21;8.00;99.90
12374;DHT22;6251;51.762;8.660;2023-04-15T14:13:22;8.10;99.90
12374;DHT22;6251;51.762;8.660;2023-04-15T14:23:22;8.10;99.90
12374;DHT22;6251;51.762;8.660;2023-04-15T14:33:23;8.00;99.90
12374;DHT22;6251;51.762;8.660;2023-04-15T14:43:23;8.10;99.90
12374;DHT22;6251;51.762;8.660;2023-04-15T14:53:24;8.10;99.90
12374;DHT22;6251;51.762;8.660;2023-04-15T15:03:25;8.10;99.90
12374;DHT22;6251;51.762;8.660;2023-04-15T15:13:25;8.20;99.90
12374;DHT22;6251;51.762;8.660;2023-04-15T15:23:26;8.20;99.90
12374;DHT22;6251;51.762;8.660;2023-04-15T15:33:27;8.30;99.90
12374;DHT22;6251;51.762;8.660;2023-04-15T15:43:33;8.30;99.90
12374;DHT22;6251;51.762;8.660;2023-04-15T15:53:34;8.30;99.90
12374;DHT22;6251;51.762;8.660;2023-04-15T16:03:35;8.30;99.90
12374;DHT22;6251;51.762;8.660;2023-04-15T16:13:35;8.40;99.90
12374;DHT22;6251;51.762;8.660;2023-04-15T16:23:36;8.40;99.90
12374;DHT22;6251;51.762;8.660;2023-04-15T16:33:37;8.40;99.90
12374;DHT22;6251;51.762;8.660;2023-04-15T16:43:38;8.40;99.90
12374;DHT22;6251;51.762;8.660;2023-04-15T16:53:38;8.40;99.90
12374;DHT22;6251;51.762;8.660;2023-04-15T17:03:39;8.40;99.90
12374;DHT22;6251;51.762;8.660;2023-04-15T17:13:39;8.50;99.90
12374;DHT22;6251;51.762;8.660;2023-04-15T17:23:40;8.50;99.90
12374;DHT22;6251;51.762;8.660;2023-04-15T17:33:42;8.50;99.90
12374;DHT22;6251;51.762;8.660;2023-04-15T17:43:43;8.50;99.90
12374;DHT22;6251;51.762;8.660;2023-04-15T17:53:44;8.40;99.90
12374;DHT22;6251;51.762;8.660;2023-04-15T18:03:44;8.50;99.90
12374;DHT22;6251;51.762;8.660;2023-04-15T18:13:48;8.40;99.90
12374;DHT22;6251;51.762;8.660;2023-04-15T18:23:48;8.40;99.90
12374;DHT22;6251;51.762;8.660;2023-04-15T18:33:49;8.40;99.90
12374;DHT22;6251;51.762;8.660;2023-04-15T18:43:52;8.40;99.90
12374;DHT22;6251;51.762;8.660;2023-04-15T18:53:52;8.40;99.90
12374;DHT22;6251;51.762;8.660;2023-04-15T19:03:53;8.40;99.90
12374;DHT22;6251;51.762;8.660;2023-04-15T19:13:59;8.40;99.90
12374;DHT22;6251;51.762;8.660;2023-04-15T19:24:00;8.40;99.90
12374;DHT22;6251;51.762;8.660;2023-04-15T19:34:01;8.40;99.90
12374;DHT22;6251;51.762;8.660;2023-04-15T19:44:01;8.40;99.90
12374;DHT22;6251;51.762;8.660;2023-04-15T19:54:03;8.40;99.90
12374;DHT22;6251;51.762;8.660;2023-04-15T20:04:04;8.40;99.90
12374;DHT22;6251;51.762;8.660;2023-04-15T20:14:05;8.40;99.90
12374;DHT22;6251;51.762;8.660;2023-04-15T20:24:05;8.40;99.90
12374;DHT22;6251;51.762;8.660;2023-04-15T20:34:06;8.40;99.90
12374;DHT22;6251;51.762;8.660;2023-04-15T20:44:07;8.30;99.90
12374;DHT22;6251;51.762;8.660;2023-04-15T20:54:07;8.30;99.90
12374;DHT22;6251;51.762;8.660;2023-04-15T23:06:12;8.40;99.90
